createdAt,value
2018-02-04T00:01:12.938Z,5.83
2018-02-04T00:03:40.855Z,5.43
2018-02-04T00:06:08.502Z,4.90
2018-02-04T00:08:36.771Z,5.10
2018-02-04T00:11:04.441Z,4.97
2018-02-04T00:13:32.099Z,4.50
2018-02-04T00:15:59.620Z,9.13
2018-02-04T00:18:28.258Z,5.73
2018-02-04T00:20:55.847Z,6.67
2018-02-04T00:23:23.934Z,5.60
2018-02-04T00:25:51.454Z,5.43
2018-02-04T00:28:18.987Z,5.20
2018-02-04T00:30:46.477Z,6.63
2018-02-04T00:33:14.027Z,6.87
2018-02-04T00:35:41.510Z,5.70
2018-02-04T00:38:09.009Z,6.23
2018-02-04T00:40:37.319Z,7.10
2018-02-04T00:43:04.844Z,8.20
2018-02-04T00:45:32.691Z,8.67
2018-02-04T00:48:01.071Z,8.03
2018-02-04T00:50:28.664Z,6.33
2018-02-04T00:52:56.967Z,7.07
2018-02-04T00:55:24.511Z,7.33
2018-02-04T00:57:52.018Z,6.23
2018-02-04T01:00:20.422Z,5.77
2018-02-04T01:02:48.120Z,6.87
2018-02-04T01:05:15.602Z,7.30
2018-02-04T01:07:43.108Z,6.90
2018-02-04T01:10:11.314Z,13.70
2018-02-04T01:12:38.849Z,5.83
2018-02-04T01:15:07.114Z,7.53
2018-02-04T01:17:34.635Z,7.93
2018-02-04T01:20:02.333Z,11.67
2018-02-04T01:22:29.894Z,7.57
2018-02-04T01:24:57.592Z,5.93
2018-02-04T01:27:25.116Z,5.83
2018-02-04T01:29:53.001Z,5.77
2018-02-04T01:32:20.533Z,7.63
2018-02-04T01:34:48.128Z,5.30
2018-02-04T01:37:15.678Z,5.00
2018-02-04T01:39:44.493Z,5.67
2018-02-04T01:42:12.088Z,7.57
2018-02-04T01:44:39.665Z,4.53
2018-02-04T01:47:07.150Z,3.67
2018-02-04T01:49:34.815Z,5.83
2018-02-04T01:52:03.155Z,3.90
2018-02-04T01:54:31.689Z,5.80
2018-02-04T01:56:59.474Z,3.67
2018-02-04T01:59:27.592Z,4.43
2018-02-04T02:01:55.858Z,4.90
2018-02-04T02:04:23.623Z,5.67
2018-02-04T02:06:51.915Z,6.10
2018-02-04T02:09:20.180Z,5.13
2018-02-04T02:11:47.802Z,4.53
2018-02-04T02:14:15.771Z,4.80
2018-02-04T02:16:43.286Z,5.20
2018-02-04T02:19:10.802Z,5.00
2018-02-04T02:21:38.286Z,4.40
2018-02-04T02:24:06.084Z,4.93
2018-02-04T02:26:34.152Z,4.53
2018-02-04T02:29:01.665Z,5.60
2018-02-04T02:31:29.539Z,3.80
2018-02-04T02:33:57.242Z,4.67
2018-02-04T02:36:24.956Z,5.60
2018-02-04T02:38:52.551Z,4.07
2018-02-04T02:41:21.039Z,4.90
2018-02-04T02:43:49.426Z,5.37
2018-02-04T02:46:17.018Z,3.90
2018-02-04T02:48:44.540Z,3.90
2018-02-04T02:51:12.066Z,3.50
2018-02-04T02:53:39.805Z,3.37
2018-02-04T02:56:07.371Z,4.97
2018-02-04T02:58:35.112Z,4.97
2018-02-04T03:01:02.638Z,6.70
2018-02-04T03:03:30.131Z,3.93
2018-02-04T03:05:57.647Z,3.53
2018-02-04T03:08:25.146Z,3.77
2018-02-04T03:10:52.695Z,4.77
2018-02-04T03:13:20.307Z,3.40
2018-02-04T03:15:48.605Z,4.13
2018-02-04T03:18:16.123Z,4.10
2018-02-04T03:20:43.699Z,4.33
2018-02-04T03:23:11.207Z,3.17
2018-02-04T03:25:38.719Z,3.70
2018-02-04T03:28:06.249Z,4.10
2018-02-04T03:30:33.751Z,6.10
2018-02-04T03:33:01.288Z,4.77
2018-02-04T03:35:29.512Z,4.33
2018-02-04T03:37:56.990Z,6.50
2018-02-04T03:40:24.532Z,4.77
2018-02-04T03:42:52.046Z,4.57
2018-02-04T03:45:19.556Z,4.97
2018-02-04T03:47:47.053Z,4.27
2018-02-04T03:50:14.575Z,5.43
2018-02-04T03:52:42.121Z,4.03
2018-02-04T03:55:09.661Z,4.60
2018-02-04T03:57:37.150Z,5.23
2018-02-04T04:00:04.694Z,5.70
2018-02-04T04:02:32.275Z,4.70
2018-02-04T04:05:00.710Z,5.83
2018-02-04T04:07:30.434Z,6.23
2018-02-04T04:09:57.943Z,5.60
2018-02-04T04:12:26.919Z,5.57
2018-02-04T04:14:55.284Z,4.80
2018-02-04T04:17:23.585Z,6.57
2018-02-04T04:19:51.084Z,6.27
2018-02-04T04:22:18.715Z,6.70
2018-02-04T04:24:46.197Z,6.00
2018-02-04T04:27:13.785Z,5.60
2018-02-04T04:29:42.101Z,7.40
2018-02-04T04:32:09.574Z,7.60
2018-02-04T04:34:37.614Z,6.50
2018-02-04T04:37:05.263Z,6.10
2018-02-04T04:39:34.062Z,7.37
2018-02-04T04:42:01.550Z,6.80
2018-02-04T04:44:29.162Z,11.53
2018-02-04T04:46:57.623Z,8.43
2018-02-04T04:49:25.150Z,7.37
2018-02-04T04:51:52.642Z,6.87
2018-02-04T04:54:20.171Z,7.87
2018-02-04T04:56:47.698Z,11.00
2018-02-04T04:59:16.202Z,5.87
2018-02-04T05:01:44.290Z,7.27
2018-02-04T05:04:11.795Z,7.00
2018-02-04T05:06:39.298Z,7.33
2018-02-04T05:09:06.805Z,6.87
2018-02-04T05:11:35.075Z,7.43
2018-02-04T05:14:02.884Z,7.10
2018-02-04T05:16:30.590Z,7.60
2018-02-04T05:18:58.130Z,6.27
2018-02-04T05:21:25.655Z,7.97
2018-02-04T05:23:53.166Z,9.53
2018-02-04T05:26:20.738Z,7.10
2018-02-04T05:28:48.990Z,8.00
2018-02-04T05:31:16.493Z,8.90
2018-02-04T05:33:44.771Z,8.30
2018-02-04T05:36:13.033Z,8.03
2018-02-04T05:38:40.913Z,9.70
2018-02-04T05:41:09.176Z,8.50
2018-02-04T05:43:37.854Z,7.43
2018-02-04T05:46:05.877Z,6.80
2018-02-04T05:48:33.445Z,13.20
2018-02-04T05:51:00.935Z,10.40
2018-02-04T05:53:28.459Z,10.07
2018-02-04T05:55:55.950Z,9.73
2018-02-04T05:58:23.482Z,10.57
2018-02-04T06:00:50.967Z,9.63
2018-02-04T06:03:18.692Z,11.33
2018-02-04T06:05:46.196Z,11.37
2018-02-04T06:08:13.718Z,9.97
2018-02-04T06:10:41.312Z,7.53
2018-02-04T06:13:08.938Z,7.80
2018-02-04T06:15:36.590Z,10.43
2018-02-04T06:18:04.126Z,14.70
2018-02-04T06:20:32.474Z,19.00
2018-02-04T06:23:00.023Z,16.17
2018-02-04T06:25:27.672Z,12.13
2018-02-04T06:27:55.190Z,11.53
2018-02-04T06:30:23.458Z,19.27
2018-02-04T06:32:51.754Z,12.27
2018-02-04T06:35:19.398Z,10.60
2018-02-04T06:37:47.162Z,10.77
2018-02-04T06:40:15.459Z,12.57
2018-02-04T06:42:42.997Z,14.57
2018-02-04T06:45:10.512Z,11.47
2018-02-04T06:47:38.143Z,8.93
2018-02-04T06:50:05.869Z,10.30
2018-02-04T06:52:33.406Z,11.53
2018-02-04T06:55:00.927Z,10.63
2018-02-04T06:57:28.420Z,13.30
2018-02-04T06:59:56.123Z,12.23
2018-02-04T07:02:23.634Z,11.07
2018-02-04T07:04:51.617Z,11.67
2018-02-04T07:07:19.178Z,13.20
2018-02-04T07:09:46.890Z,10.87
2018-02-04T07:12:14.804Z,10.83
2018-02-04T07:14:42.393Z,9.33
2018-02-04T07:17:09.924Z,10.90
2018-02-04T07:19:37.742Z,11.17
2018-02-04T07:22:05.241Z,10.83
2018-02-04T07:24:32.826Z,11.37
2018-02-04T07:27:00.304Z,10.23
2018-02-04T07:29:27.817Z,10.27
2018-02-04T07:31:55.452Z,10.77
2018-02-04T07:34:23.082Z,12.77
2018-02-04T07:36:50.652Z,9.57
2018-02-04T07:39:19.090Z,9.47
2018-02-04T07:41:46.642Z,10.20
2018-02-04T07:44:14.554Z,9.53
2018-02-04T07:46:42.851Z,10.33
2018-02-04T07:49:10.734Z,11.67
2018-02-04T07:51:38.277Z,11.33
2018-02-04T07:54:05.833Z,15.70
2018-02-04T07:56:33.335Z,13.77
2018-02-04T07:59:00.888Z,11.47
2018-02-04T08:01:28.411Z,8.37
2018-02-04T08:03:55.908Z,8.53
2018-02-04T08:06:23.458Z,8.13
2018-02-04T08:08:50.991Z,8.93
2018-02-04T08:11:18.721Z,11.40
2018-02-04T08:13:46.354Z,8.67
2018-02-04T08:16:13.851Z,13.73
2018-02-04T08:18:42.103Z,10.40
2018-02-04T08:21:09.603Z,7.83
2018-02-04T08:23:37.584Z,8.23
2018-02-04T08:26:05.855Z,8.17
2018-02-04T08:28:33.398Z,7.93
2018-02-04T08:31:01.664Z,8.57
2018-02-04T08:33:30.077Z,7.67
2018-02-04T08:35:57.784Z,8.73
2018-02-04T08:38:25.419Z,13.60
2018-02-04T08:40:52.946Z,10.33
2018-02-04T08:43:21.380Z,9.33
2018-02-04T08:45:48.900Z,9.90
2018-02-04T08:48:16.394Z,8.60
2018-02-04T08:50:44.131Z,7.70
2018-02-04T08:53:11.669Z,6.97
2018-02-04T08:55:39.347Z,9.63
2018-02-04T08:58:06.972Z,6.80
2018-02-04T09:00:35.389Z,7.97
2018-02-04T09:03:03.258Z,7.60
2018-02-04T09:05:30.752Z,8.53
2018-02-04T09:07:58.247Z,7.63
2018-02-04T09:10:25.819Z,6.97
2018-02-04T09:12:53.325Z,7.00
2018-02-04T09:15:20.808Z,12.17
2018-02-04T09:17:48.366Z,12.90
2018-02-04T09:20:15.998Z,8.17
2018-02-04T09:22:43.715Z,9.80
2018-02-04T09:25:12.459Z,10.97
2018-02-04T09:27:39.952Z,13.60
2018-02-04T09:30:08.827Z,22.90
2018-02-04T09:32:36.331Z,17.27
2018-02-04T09:35:03.851Z,20.40
2018-02-04T09:37:31.431Z,19.63
2018-02-04T09:39:59.662Z,20.47
2018-02-04T09:42:27.232Z,27.47
2018-02-04T09:44:54.826Z,20.23
2018-02-04T09:47:22.365Z,18.50
2018-02-04T09:49:50.239Z,23.63
2018-02-04T09:52:18.630Z,20.13
2018-02-04T09:54:46.892Z,20.53
2018-02-04T09:57:14.459Z,16.57
2018-02-04T09:59:42.014Z,19.87
2018-02-04T10:02:10.098Z,15.63
2018-02-04T10:04:37.864Z,15.20
2018-02-04T10:07:05.516Z,14.43
2018-02-04T10:09:33.064Z,12.67
2018-02-04T10:12:01.260Z,14.13
2018-02-04T10:14:29.187Z,10.43
2018-02-04T10:16:56.691Z,13.07
2018-02-04T10:19:24.259Z,11.57
2018-02-04T10:21:51.755Z,13.63
2018-02-04T10:24:19.319Z,9.77
2018-02-04T10:26:47.008Z,14.13
2018-02-04T10:29:14.597Z,10.07
2018-02-04T10:31:42.091Z,10.47
2018-02-04T10:34:09.850Z,12.67
2018-02-04T10:36:37.354Z,11.40
2018-02-04T10:39:05.977Z,9.50
2018-02-04T10:41:33.914Z,12.80
2018-02-04T10:44:02.166Z,9.60
2018-02-04T10:46:29.692Z,11.47
2018-02-04T10:48:57.571Z,7.17
2018-02-04T10:51:30.741Z,7.73
2018-02-04T10:53:59.306Z,7.87
2018-02-04T10:56:26.817Z,7.00
2018-02-04T10:58:54.328Z,7.70
2018-02-04T11:01:22.050Z,6.50
2018-02-04T11:03:49.664Z,7.07
2018-02-04T11:06:17.173Z,7.10
2018-02-04T11:08:44.858Z,7.30
2018-02-04T11:11:12.370Z,5.37
2018-02-04T11:13:39.960Z,7.80
2018-02-04T11:16:07.451Z,5.83
2018-02-04T11:18:35.602Z,5.40
2018-02-04T11:21:03.968Z,5.10
2018-02-04T11:23:31.573Z,7.17
2018-02-04T11:25:59.097Z,5.83
2018-02-04T11:28:26.562Z,9.23
2018-02-04T11:30:54.859Z,4.60
2018-02-04T11:33:22.530Z,6.13
2018-02-04T11:35:50.091Z,5.90
2018-02-04T11:38:17.602Z,4.40
2018-02-04T11:40:45.148Z,6.27
2018-02-04T11:43:12.869Z,4.67
2018-02-04T11:45:40.375Z,5.20
2018-02-04T11:48:07.937Z,6.63
2018-02-04T11:50:35.753Z,5.87
2018-02-04T11:53:03.276Z,5.47
2018-02-04T11:55:30.834Z,4.00
2018-02-04T11:57:58.415Z,4.20
2018-02-04T12:00:25.949Z,4.30
2018-02-04T12:02:53.945Z,5.63
2018-02-04T12:05:21.463Z,10.70
2018-02-04T12:07:48.966Z,5.57
2018-02-04T12:10:16.882Z,4.67
2018-02-04T12:12:44.512Z,7.23
2018-02-04T12:15:12.035Z,5.93
2018-02-04T12:17:39.563Z,5.37
2018-02-04T12:20:07.660Z,8.03
2018-02-04T12:22:36.052Z,6.83
2018-02-04T12:25:03.908Z,5.80
2018-02-04T12:27:31.413Z,4.90
2018-02-04T12:29:58.923Z,6.17
2018-02-04T12:32:26.483Z,6.80
2018-02-04T12:34:54.045Z,7.63
2018-02-04T12:37:21.603Z,5.60
2018-02-04T12:39:49.515Z,6.37
2018-02-04T12:42:17.160Z,5.90
2018-02-04T12:44:44.701Z,4.97
2018-02-04T12:47:12.967Z,5.23
2018-02-04T12:49:41.595Z,13.87
2018-02-04T12:52:09.096Z,5.50
2018-02-04T12:54:36.763Z,4.67
2018-02-04T12:57:04.449Z,6.63
2018-02-04T12:59:31.940Z,4.90
2018-02-04T13:01:59.669Z,4.63
2018-02-04T13:04:28.492Z,5.40
2018-02-04T13:06:56.116Z,6.07
2018-02-04T13:09:24.028Z,8.40
2018-02-04T13:11:51.674Z,5.40
2018-02-04T13:14:19.223Z,5.60
2018-02-04T13:16:47.506Z,5.87
2018-02-04T13:19:15.659Z,7.23
2018-02-04T13:21:44.136Z,6.70
2018-02-04T13:24:12.480Z,14.10
2018-02-04T13:26:40.313Z,9.67
2018-02-04T13:29:07.904Z,10.03
2018-02-04T13:31:35.464Z,6.97
2018-02-04T13:34:02.984Z,6.27
2018-02-04T13:36:30.490Z,8.07
2018-02-04T13:38:58.109Z,7.70
2018-02-04T13:41:25.625Z,6.97
2018-02-04T13:43:53.166Z,7.00
2018-02-04T13:46:21.823Z,6.97
2018-02-04T13:48:49.474Z,5.80
2018-02-04T13:51:17.053Z,6.00
2018-02-04T13:53:45.292Z,6.63
2018-02-04T13:56:14.089Z,5.83
2018-02-04T13:58:41.618Z,6.33
2018-02-04T14:01:09.120Z,7.83
2018-02-04T14:03:36.673Z,5.37
2018-02-04T14:06:04.239Z,11.33
2018-02-04T14:08:31.903Z,6.80
2018-02-04T14:10:59.407Z,8.17
2018-02-04T14:13:27.311Z,9.80
2018-02-04T14:15:55.641Z,7.07
2018-02-04T14:18:23.352Z,8.87
2018-02-04T14:20:52.178Z,24.17
2018-02-04T14:23:21.206Z,9.27
2018-02-04T14:25:49.520Z,7.83
2018-02-04T14:28:17.061Z,7.30
2018-02-04T14:30:44.582Z,6.00
2018-02-04T14:33:12.359Z,7.13
2018-02-04T14:35:39.870Z,7.70
2018-02-04T14:38:07.848Z,6.73
2018-02-04T14:40:35.393Z,7.30
2018-02-04T14:43:03.154Z,17.30
2018-02-04T14:45:30.706Z,7.53
2018-02-04T14:47:58.210Z,6.30
2018-02-04T14:50:26.503Z,7.63
2018-02-04T14:52:54.253Z,6.10
2018-02-04T14:55:21.787Z,7.20
2018-02-04T14:57:49.598Z,7.60
2018-02-04T15:00:17.089Z,7.77
2018-02-04T15:02:44.796Z,9.33
2018-02-04T15:05:12.311Z,10.53
2018-02-04T15:07:39.842Z,7.77
2018-02-04T15:10:07.425Z,8.90
2018-02-04T15:12:35.187Z,8.00
2018-02-04T15:15:02.700Z,8.97
2018-02-04T15:17:30.250Z,9.63
2018-02-04T15:19:58.042Z,11.53
2018-02-04T15:22:25.752Z,9.13
2018-02-04T15:24:54.775Z,11.00
2018-02-04T15:27:22.616Z,16.80
2018-02-04T15:29:50.408Z,11.83
2018-02-04T15:32:17.928Z,12.53
2018-02-04T15:34:46.269Z,8.73
2018-02-04T15:37:13.965Z,11.20
2018-02-04T15:39:41.732Z,19.80
2018-02-04T15:42:09.261Z,10.57
2018-02-04T15:44:36.792Z,8.97
2018-02-04T15:47:04.275Z,10.93
2018-02-04T15:49:31.886Z,8.60
2018-02-04T15:51:59.452Z,9.33
2018-02-04T15:54:28.510Z,9.63
2018-02-04T15:56:56.199Z,9.47
2018-02-04T15:59:23.747Z,8.20
2018-02-04T16:01:52.254Z,8.70
2018-02-04T16:04:19.858Z,8.80
2018-02-04T16:06:47.358Z,8.50
2018-02-04T16:09:15.035Z,10.13
2018-02-04T16:11:42.551Z,10.20
2018-02-04T16:14:10.071Z,11.50
2018-02-04T16:16:38.283Z,32.17
2018-02-04T16:19:05.813Z,13.10
2018-02-04T16:21:33.425Z,14.20
2018-02-04T16:24:00.995Z,10.43
2018-02-04T16:26:28.502Z,10.23
2018-02-04T16:28:56.089Z,10.37
2018-02-04T16:31:23.593Z,11.10
2018-02-04T16:33:51.128Z,14.90
2018-02-04T16:36:18.859Z,19.23
2018-02-04T16:38:46.372Z,16.00
2018-02-04T16:41:14.229Z,14.23
2018-02-04T16:43:42.117Z,17.37
2018-02-04T16:46:09.779Z,16.53
2018-02-04T16:48:37.482Z,20.20
2018-02-04T16:51:05.110Z,30.93
2018-02-04T16:53:33.869Z,20.10
2018-02-04T16:56:01.654Z,21.80
2018-02-04T16:58:29.233Z,22.03
2018-02-04T17:00:56.791Z,22.60
2018-02-04T17:03:24.434Z,26.37
2018-02-04T17:05:51.995Z,34.10
2018-02-04T17:08:19.672Z,31.03
2018-02-04T17:10:47.964Z,22.73
2018-02-04T17:13:15.825Z,26.57
2018-02-04T17:15:43.363Z,23.30
2018-02-04T17:18:10.920Z,25.70
2018-02-04T17:20:38.752Z,36.17
2018-02-04T17:23:07.143Z,40.17
2018-02-04T17:25:34.630Z,27.53
2018-02-04T17:28:02.987Z,27.47
2018-02-04T17:30:30.941Z,27.60
2018-02-04T17:32:58.454Z,27.47
2018-02-04T17:35:26.053Z,27.67
2018-02-04T17:37:53.734Z,28.00
2018-02-04T17:40:21.240Z,29.57
2018-02-04T17:42:48.731Z,29.70
2018-02-04T17:45:17.152Z,34.87
2018-02-04T17:47:44.842Z,33.83
2018-02-04T17:50:12.643Z,32.53
2018-02-04T17:52:40.938Z,28.47
2018-02-04T17:55:09.271Z,32.10
2018-02-04T17:57:36.848Z,29.03
2018-02-04T18:00:04.569Z,27.97
2018-02-04T18:02:32.117Z,30.40
2018-02-04T18:04:59.683Z,34.13
2018-02-04T18:07:27.202Z,34.00
2018-02-04T18:09:55.568Z,37.57
2018-02-04T18:12:23.590Z,37.37
2018-02-04T18:14:51.128Z,37.20
2018-02-04T18:17:19.299Z,34.73
2018-02-04T18:19:47.654Z,34.80
2018-02-04T18:22:15.550Z,34.27
2018-02-04T18:24:43.229Z,34.93
2018-02-04T18:27:10.743Z,34.20
2018-02-04T18:29:38.367Z,44.50
2018-02-04T18:32:06.159Z,40.13
2018-02-04T18:34:33.806Z,38.53
2018-02-04T18:37:01.338Z,37.73
2018-02-04T18:39:29.835Z,39.77
2018-02-04T18:41:57.356Z,35.50
2018-02-04T18:44:25.256Z,41.90
2018-02-04T18:46:52.891Z,44.63
2018-02-04T18:49:20.441Z,41.50
2018-02-04T18:51:48.311Z,36.57
2018-02-04T18:54:15.875Z,47.03
2018-02-04T18:56:44.314Z,45.47
2018-02-04T18:59:11.959Z,45.40
2018-02-04T19:01:39.504Z,48.10
2018-02-04T19:04:07.023Z,52.20
2018-02-04T19:06:35.396Z,55.23
2018-02-04T19:09:03.044Z,71.40
2018-02-04T19:11:30.576Z,51.13
2018-02-04T19:13:59.020Z,49.73
2018-02-04T19:16:27.619Z,64.23
2018-02-04T19:18:55.250Z,65.77
2018-02-04T19:21:24.097Z,52.17
2018-02-04T19:23:53.014Z,52.07
2018-02-04T19:26:20.564Z,58.70
2018-02-04T19:28:48.098Z,73.47
2018-02-04T19:31:16.601Z,58.33
2018-02-04T19:33:44.927Z,72.20
2018-02-04T19:36:12.748Z,57.87
2018-02-04T19:38:40.699Z,91.07
2018-02-04T19:41:08.810Z,66.43
2018-02-04T19:43:36.720Z,70.77
2018-02-04T19:46:04.236Z,66.10
2018-02-04T19:48:32.766Z,64.17
2018-02-04T19:51:00.469Z,56.33
2018-02-04T19:53:28.037Z,66.93
2018-02-04T19:55:55.624Z,56.17
2018-02-04T19:58:23.150Z,52.50
2018-02-04T20:00:51.334Z,64.00
2018-02-04T20:03:19.501Z,61.13
2018-02-04T20:05:48.202Z,65.00
2018-02-04T20:08:16.489Z,61.10
2018-02-04T20:10:44.921Z,64.20
2018-02-04T20:13:12.815Z,58.80
2018-02-04T20:15:40.452Z,71.40
2018-02-04T20:18:07.998Z,54.77
2018-02-04T20:20:35.734Z,59.27
2018-02-04T20:23:04.023Z,54.57
2018-02-04T20:25:31.808Z,51.00
2018-02-04T20:27:59.331Z,58.13
2018-02-04T20:30:27.643Z,51.37
2018-02-04T20:33:07.157Z,54.47
2018-02-04T20:35:34.664Z,32.63
2018-02-04T20:38:02.272Z,56.30
2018-02-04T20:40:29.814Z,53.53
2018-02-04T20:42:57.386Z,51.53
2018-02-04T20:45:24.898Z,49.83
2018-02-04T20:47:52.795Z,48.97
2018-02-04T20:50:21.134Z,46.90
2018-02-04T20:52:48.756Z,46.33
2018-02-04T20:55:16.264Z,49.17
2018-02-04T20:57:43.831Z,50.47
2018-02-04T21:00:11.769Z,49.80
2018-02-04T21:02:39.366Z,52.07
2018-02-04T21:05:06.931Z,51.83
2018-02-04T21:07:34.487Z,48.00
2018-02-04T21:10:02.817Z,45.43
2018-02-04T21:12:30.343Z,43.33
2018-02-04T21:14:57.913Z,43.87
2018-02-04T21:17:27.002Z,48.70
2018-02-04T21:19:55.105Z,47.30
2018-02-04T21:22:22.595Z,49.97
2018-02-04T21:24:50.330Z,44.17
2018-02-04T21:27:17.856Z,51.50
2018-02-04T21:29:45.516Z,44.97
2018-02-04T21:32:13.974Z,46.97
2018-02-04T21:34:41.577Z,46.63
2018-02-04T21:37:09.118Z,43.50
2018-02-04T21:39:36.634Z,46.70
2018-02-04T21:42:04.337Z,48.30
2018-02-04T21:44:31.833Z,41.63
2018-02-04T21:47:00.070Z,45.00
2018-02-04T21:49:27.577Z,46.93
2018-02-04T21:51:55.224Z,55.03
2018-02-04T21:54:23.283Z,47.17
2018-02-04T21:56:51.607Z,48.77
2018-02-04T21:59:19.751Z,56.77
2018-02-04T22:01:47.249Z,53.30
2018-02-04T22:04:14.782Z,52.17
2018-02-04T22:06:42.328Z,55.87
2018-02-04T22:09:09.850Z,64.50
2018-02-04T22:11:37.516Z,57.43
2018-02-04T22:14:05.066Z,57.23
2018-02-04T22:16:32.704Z,54.70
2018-02-04T22:19:00.317Z,58.40
2018-02-04T22:21:28.571Z,65.47
2018-02-04T22:23:56.871Z,56.17
2018-02-04T22:26:24.549Z,59.17
2018-02-04T22:28:52.211Z,64.13
2018-02-04T22:31:19.775Z,54.33
2018-02-04T22:33:47.606Z,58.13
2018-02-04T22:36:16.369Z,62.17
2018-02-04T22:38:44.052Z,58.80
2018-02-04T22:41:11.605Z,56.60
2018-02-04T22:43:39.306Z,57.77
2018-02-04T22:46:06.831Z,60.90
2018-02-04T22:48:35.896Z,59.37
2018-02-04T22:51:03.418Z,57.37
2018-02-04T22:53:30.918Z,65.07
2018-02-04T22:55:58.545Z,61.73
2018-02-04T22:58:26.181Z,62.63
2018-02-04T23:00:53.864Z,64.13
2018-02-04T23:03:21.530Z,55.17
2018-02-04T23:05:49.022Z,57.93
2018-02-04T23:08:16.582Z,58.17
2018-02-04T23:10:44.328Z,62.93
2018-02-04T23:13:11.882Z,63.83
2018-02-04T23:15:39.486Z,60.10
2018-02-04T23:18:07.090Z,65.03
2018-02-04T23:20:34.612Z,63.97
2018-02-04T23:23:02.284Z,60.20
2018-02-04T23:25:30.074Z,61.90
2018-02-04T23:27:57.600Z,59.60
2018-02-04T23:30:25.090Z,63.43
2018-02-04T23:32:52.719Z,64.83
2018-02-04T23:35:20.310Z,58.63
2018-02-04T23:37:48.083Z,66.57
2018-02-04T23:40:15.590Z,64.57
2018-02-04T23:42:43.116Z,56.37
2018-02-04T23:45:11.197Z,58.10
2018-02-04T23:47:38.946Z,56.27
2018-02-04T23:50:06.455Z,58.70
2018-02-04T23:52:34.183Z,57.77
2018-02-04T23:55:01.809Z,53.60
2018-02-04T23:57:30.088Z,63.80
2018-02-04T23:59:57.759Z,55.37
